Time;durP1;ratioP1;P1;durP2;ratioP2;P2;SDS_P1;SDS_P2;PMS_P1;PMS_P2;Temp;Humidity;BMP_temperature;BMP_pressure;BME280_temperature;BME280_humidity;BME280_pressure;Samples;Min_cycle;Max_cycle;Signal;HPM_P1;HPM_P2
2023/02/07 00:00:09;;;;;;;8.35;4.93;;;1.90;99.90;;;;;;5094866;28;20463;-66
2023/02/07 00:02:35;;;;;;;7.25;4.65;;;1.80;99.90;;;;;;5113409;28;20022;-67
2023/02/07 00:05:00;;;;;;;6.83;4.13;;;1.80;99.90;;;;;;5095215;28;20107;-67
2023/02/07 00:07:26;;;;;;;8.07;4.37;;;1.80;99.90;;;;;;5113801;28;20460;-66
2023/02/07 00:09:52;;;;;;;6.72;4.88;;;1.80;99.90;;;;;;5095052;28;20027;-67
2023/02/07 00:12:18;;;;;;;8.50;4.50;;;1.80;99.90;;;;;;5095153;28;20031;-66
2023/02/07 00:14:43;;;;;;;9.73;5.37;;;1.80;99.90;;;;;;5113114;28;20024;-67
2023/02/07 00:17:09;;;;;;;7.07;4.77;;;1.80;99.90;;;;;;5113232;28;20031;-67
2023/02/07 00:19:34;;;;;;;7.60;4.37;;;1.70;99.90;;;;;;5113078;28;20357;-66
2023/02/07 00:22:00;;;;;;;7.13;4.22;;;1.70;99.90;;;;;;5113210;28;20384;-66
2023/02/07 00:24:26;;;;;;;5.63;3.90;;;1.70;99.90;;;;;;5113159;28;20020;-68
2023/02/07 00:26:51;;;;;;;7.47;4.60;;;1.70;99.90;;;;;;5113496;28;20035;-66
2023/02/07 00:29:20;;;;;;;7.13;4.70;;;1.70;99.90;;;;;;5113007;28;20099;-65
2023/02/07 00:31:46;;;;;;;6.78;4.80;;;1.70;99.90;;;;;;5113011;28;20072;-66
2023/02/07 00:34:13;;;;;;;8.18;5.05;;;1.70;99.90;;;;;;5095023;28;20110;-66
2023/02/07 00:36:39;;;;;;;6.47;4.60;;;1.70;99.90;;;;;;5113241;28;20032;-66
2023/02/07 00:39:09;;;;;;;7.30;5.22;;;1.70;99.90;;;;;;5113441;28;20097;-65
2023/02/07 00:41:35;;;;;;;7.57;5.13;;;1.80;99.90;;;;;;5113114;28;20115;-65
2023/02/07 00:44:01;;;;;;;8.50;5.30;;;1.80;99.90;;;;;;5094545;28;20051;-65
2023/02/07 00:46:26;;;;;;;9.73;5.30;;;1.80;99.90;;;;;;5113571;28;20031;-68
2023/02/07 00:48:55;;;;;;;8.63;5.40;;;1.90;99.90;;;;;;5113721;28;20038;-67
2023/02/07 00:51:24;;;;;;;8.27;4.75;;;1.90;99.90;;;;;;5112970;28;20031;-65
2023/02/07 00:53:52;;;;;;;10.70;5.80;;;1.80;99.90;;;;;;5114400;28;20092;-66
2023/02/07 00:56:18;;;;;;;8.43;5.25;;;1.90;99.90;;;;;;5095449;28;20031;-66
2023/02/07 00:58:43;;;;;;;8.53;5.00;;;1.90;99.90;;;;;;5112584;28;20525;-66
2023/02/07 01:01:09;;;;;;;7.63;5.00;;;1.90;99.90;;;;;;5112782;28;20027;-66
2023/02/07 01:03:34;;;;;;;7.17;5.23;;;1.80;99.90;;;;;;5115713;28;20026;-66
2023/02/07 01:06:00;;;;;;;11.37;5.70;;;1.80;99.90;;;;;;5117492;28;20057;-66
2023/02/07 01:08:26;;;;;;;8.40;5.13;;;1.70;99.90;;;;;;5117784;28;20024;-65
2023/02/07 01:10:51;;;;;;;9.63;5.77;;;1.70;99.90;;;;;;5117218;28;20081;-65
2023/02/07 01:13:17;;;;;;;10.20;5.83;;;1.70;99.90;;;;;;5116793;28;20061;-65
2023/02/07 01:15:45;;;;;;;8.63;5.50;;;1.60;99.90;;;;;;5117057;28;20028;-65
2023/02/07 01:18:11;;;;;;;7.85;5.03;;;1.60;99.90;;;;;;5116562;28;20034;-65
2023/02/07 01:20:37;;;;;;;10.23;5.72;;;1.60;99.90;;;;;;5116340;28;20472;-65
2023/02/07 01:23:03;;;;;;;8.97;5.17;;;1.60;99.90;;;;;;5116567;28;20032;-65
2023/02/07 01:25:28;;;;;;;8.18;4.68;;;1.60;99.90;;;;;;5116390;28;20019;-65
2023/02/07 01:27:54;;;;;;;11.20;6.30;;;1.50;99.90;;;;;;5097926;28;20407;-65
2023/02/07 01:30:20;;;;;;;8.73;5.70;;;1.50;99.90;;;;;;5116029;28;20023;-66
2023/02/07 01:32:45;;;;;;;9.65;6.18;;;1.50;99.90;;;;;;5097855;28;20027;-65
2023/02/07 01:35:11;;;;;;;10.77;6.30;;;1.40;99.90;;;;;;5116017;28;20103;-66
2023/02/07 01:37:37;;;;;;;8.93;5.75;;;1.40;99.90;;;;;;5116096;28;20035;-65
2023/02/07 01:40:02;;;;;;;8.83;5.70;;;1.40;99.90;;;;;;5114341;28;20028;-66
2023/02/07 01:42:28;;;;;;;9.25;5.38;;;1.40;99.90;;;;;;5116040;28;20038;-65
2023/02/07 01:44:54;;;;;;;8.10;5.50;;;1.30;99.90;;;;;;5097284;28;20062;-66
2023/02/07 01:47:23;;;;;;;11.33;6.07;;;1.30;99.90;;;;;;5115968;28;20262;-66
2023/02/07 01:49:53;;;;;;;9.45;5.22;;;1.30;99.90;;;;;;5097456;28;20106;-65
2023/02/07 01:52:39;;;;;;;8.50;5.10;;;1.30;99.90;;;;;;5115842;28;20023;-66
2023/02/07 01:55:13;;;;;;;10.50;5.88;;;1.30;99.90;;;;;;5116025;28;20019;-65
2023/02/07 01:57:40;;;;;;;8.52;5.53;;;1.30;99.90;;;;;;5115985;28;20027;-65
2023/02/07 02:00:08;;;;;;;11.23;6.00;;;1.20;99.90;;;;;;5115532;28;20019;-66
2023/02/07 02:02:35;;;;;;;11.10;6.18;;;1.20;99.90;;;;;;5097576;28;20035;-65
2023/02/07 02:05:02;;;;;;;9.35;5.63;;;1.20;99.90;;;;;;5115733;28;20042;-65
2023/02/07 02:07:31;;;;;;;10.85;6.35;;;1.20;99.90;;;;;;5115933;28;20020;-65
2023/02/07 02:09:58;;;;;;;10.07;5.68;;;1.20;99.90;;;;;;5115572;28;20024;-65
2023/02/07 02:12:27;;;;;;;;;;;1.20;99.90;;;;;;5116542;28;20047;-66
2023/02/07 02:15:18;;;;;;;8.55;5.10;;;1.20;99.90;;;;;;5114988;28;19960;-65
2023/02/07 02:17:49;;;;;;;9.25;5.13;;;1.10;99.90;;;;;;5116164;28;20035;-65
2023/02/07 02:20:47;;;;;;;8.93;5.05;;;1.10;99.90;;;;;;5115835;28;20019;-64
2023/02/07 02:23:20;;;;;;;9.52;5.50;;;1.10;99.90;;;;;;4998098;28;20113;-65
2023/02/07 02:25:57;;;;;;;9.52;6.03;;;1.00;99.90;;;;;;5015821;28;20034;-65
2023/02/07 02:28:28;;;;;;;;;;;1.10;99.90;;;;;;5013539;28;20080;-65
2023/02/07 02:31:27;;;;;;;12.23;5.80;;;1.00;99.90;;;;;;5012730;28;19910;-65
2023/02/07 02:34:04;;;;;;;8.38;4.85;;;0.90;99.90;;;;;;5013122;28;20042;-66
2023/02/07 02:36:44;;;;;;;9.82;5.75;;;0.80;99.90;;;;;;5012055;28;20037;-66
2023/02/07 02:39:20;;;;;;;10.38;6.38;;;0.80;99.90;;;;;;5012571;28;20076;-66
2023/02/07 02:42:13;;;;;;;11.13;6.38;;;0.80;99.90;;;;;;5013366;28;20454;-65
2023/02/07 02:44:53;;;;;;;11.20;5.97;;;0.80;99.90;;;;;;5012038;28;20504;-66
2023/02/07 02:47:19;;;;;;;10.45;5.88;;;0.70;99.90;;;;;;5012880;28;20029;-66
2023/02/07 02:49:46;;;;;;;;;;;0.70;99.90;;;;;;5013065;28;20068;-66
2023/02/07 02:52:11;;;;;;;11.32;6.35;;;0.70;99.90;;;;;;5012485;28;19909;-65
2023/02/07 02:54:38;;;;;;;13.57;6.07;;;0.60;99.90;;;;;;5013169;28;20400;-65
2023/02/07 02:57:26;;;;;;;11.98;6.72;;;0.60;99.90;;;;;;4995909;28;20026;-65
2023/02/07 03:00:36;;;;;;;12.52;7.10;;;0.60;99.90;;;;;;5051654;28;20036;-65
2023/02/07 03:03:30;;;;;;;12.48;6.57;;;0.50;99.90;;;;;;4993295;28;20034;-65
2023/02/07 03:06:28;;;;;;;12.93;7.40;;;0.50;99.90;;;;;;4993366;28;20458;-65
2023/02/07 03:09:04;;;;;;;12.02;6.80;;;0.50;99.90;;;;;;4992961;28;20183;-65
2023/02/07 03:11:40;;;;;;;12.52;7.53;;;0.50;99.90;;;;;;4992816;28;20491;-66
2023/02/07 03:14:22;;;;;;;12.02;7.05;;;0.40;99.90;;;;;;4993202;28;20073;-66
2023/02/07 03:16:57;;;;;;;12.27;6.85;;;0.40;99.90;;;;;;5011736;28;20034;-66
2023/02/07 03:19:35;;;;;;;12.90;7.40;;;0.40;99.90;;;;;;5011917;28;20033;-65
2023/02/07 03:22:09;;;;;;;12.30;7.45;;;0.30;99.90;;;;;;5011865;28;20026;-66
2023/02/07 03:24:46;;;;;;;17.48;7.32;;;0.30;99.90;;;;;;5011655;28;20049;-66
2023/02/07 03:27:17;;;;;;;15.70;8.40;;;0.20;99.90;;;;;;5011997;28;20038;-65
2023/02/07 03:29:46;;;;;;;14.02;7.38;;;0.30;99.90;;;;;;5011597;28;20515;-65
2023/02/07 03:32:13;;;;;;;16.48;8.20;;;0.30;99.90;;;;;;5011638;28;20121;-66
2023/02/07 03:35:17;;;;;;;16.42;8.10;;;0.30;99.90;;;;;;5104341;28;20043;-66
2023/02/07 03:37:48;;;;;;;14.05;7.82;;;0.30;99.90;;;;;;5011582;28;20462;-65
2023/02/07 03:40:15;;;;;;;13.57;8.30;;;0.30;99.90;;;;;;5011496;28;20053;-65
2023/02/07 03:42:56;;;;;;;;;;;0.30;99.90;;;;;;5011954;28;20430;-65
2023/02/07 03:45:22;;;;;;;17.30;8.45;;;0.30;99.90;;;;;;5011223;28;19916;-65
2023/02/07 03:47:48;;;;;;;14.38;7.90;;;0.30;99.90;;;;;;5011432;28;20038;-65
2023/02/07 03:50:15;;;;;;;15.98;8.77;;;0.30;99.90;;;;;;4995022;28;20028;-65
2023/02/07 03:52:41;;;;;;;13.27;8.40;;;0.30;99.90;;;;;;5011419;28;20482;-65
2023/02/07 03:55:07;;;;;;;12.27;8.00;;;0.30;99.90;;;;;;5011618;28;20049;-65
2023/02/07 03:57:33;;;;;;;14.20;8.60;;;0.30;99.90;;;;;;5011661;28;20050;-65
2023/02/07 03:59:58;;;;;;;15.27;8.80;;;0.30;99.90;;;;;;5010788;28;20062;-66
2023/02/07 04:02:24;;;;;;;15.57;8.57;;;0.30;99.90;;;;;;5011178;28;20290;-66
2023/02/07 04:04:49;;;;;;;16.73;9.00;;;0.30;99.90;;;;;;4994361;28;20032;-66
2023/02/07 04:07:15;;;;;;;17.00;9.97;;;0.30;99.90;;;;;;5011311;28;20470;-66
2023/02/07 04:09:41;;;;;;;15.60;9.17;;;0.30;99.90;;;;;;5011814;28;20034;-66
2023/02/07 04:12:06;;;;;;;19.63;9.67;;;0.30;99.90;;;;;;5011245;28;20253;-66
2023/02/07 04:14:32;;;;;;;14.73;8.67;;;0.30;99.90;;;;;;5063378;28;20126;-66
2023/02/07 04:16:58;;;;;;;14.00;8.90;;;0.30;99.90;;;;;;5113203;28;20111;-66
2023/02/07 04:19:24;;;;;;;16.05;9.93;;;0.30;99.90;;;;;;5113199;28;20019;-66
2023/02/07 04:21:49;;;;;;;15.70;9.23;;;0.20;99.90;;;;;;5113498;28;20560;-66
2023/02/07 04:24:15;;;;;;;14.63;9.00;;;0.20;99.90;;;;;;5094987;28;20024;-66
2023/02/07 04:26:40;;;;;;;16.73;10.03;;;0.20;99.90;;;;;;5113409;28;20027;-66
2023/02/07 04:29:06;;;;;;;20.77;10.73;;;0.30;99.90;;;;;;5113020;28;20364;-67
2023/02/07 04:31:32;;;;;;;18.20;10.57;;;0.30;99.90;;;;;;5113657;28;20386;-66
2023/02/07 04:33:57;;;;;;;16.93;9.87;;;0.30;99.90;;;;;;5095267;28;20265;-67
2023/02/07 04:36:23;;;;;;;16.37;10.87;;;0.20;99.90;;;;;;5114084;28;20027;-66
2023/02/07 04:38:48;;;;;;;17.57;10.27;;;0.20;99.90;;;;;;5117416;28;20024;-66
2023/02/07 04:41:14;;;;;;;17.80;10.27;;;0.10;99.90;;;;;;5117774;28;20031;-66
2023/02/07 04:43:39;;;;;;;15.87;10.10;;;0.10;99.90;;;;;;5117884;28;20024;-67
2023/02/07 04:46:06;;;;;;;17.80;10.83;;;0.10;99.90;;;;;;5117220;28;20089;-67
2023/02/07 04:48:32;;;;;;;19.30;10.32;;;0.10;99.90;;;;;;5117381;28;20430;-67
2023/02/07 04:50:57;;;;;;;17.73;11.10;;;0.10;99.90;;;;;;5117192;28;20027;-67
2023/02/07 04:53:23;;;;;;;20.93;11.20;;;0.00;99.90;;;;;;5117136;28;20034;-67
2023/02/07 04:55:51;;;;;;;17.50;11.10;;;-0.10;99.90;;;;;;5117024;28;20428;-67
2023/02/07 04:58:17;;;;;;;17.95;11.30;;;-0.10;99.90;;;;;;5124264;28;20052;-66
2023/02/07 05:00:43;;;;;;;20.40;11.65;;;-0.10;99.90;;;;;;5121685;28;20023;-67
2023/02/07 05:03:09;;;;;;;17.42;10.32;;;-0.10;99.90;;;;;;5098685;28;20024;-67
2023/02/07 05:05:41;;;;;;;19.35;10.98;;;-0.10;99.90;;;;;;5098672;28;20023;-66
2023/02/07 05:08:07;;;;;;;18.63;10.93;;;-0.10;99.90;;;;;;5117118;28;20035;-66
2023/02/07 05:10:33;;;;;;;18.00;11.23;;;-0.10;99.90;;;;;;5117089;28;20032;-66
2023/02/07 05:12:58;;;;;;;19.10;12.03;;;-0.10;99.90;;;;;;5116835;28;20034;-67
2023/02/07 05:15:24;;;;;;;21.70;11.10;;;-0.20;99.90;;;;;;5116100;28;20036;-66
2023/02/07 05:17:51;;;;;;;21.80;12.33;;;-0.20;99.90;;;;;;5098195;28;20352;-67
2023/02/07 05:20:17;;;;;;;;;;;-0.20;99.90;;;;;;5098644;28;20072;-66
2023/02/07 05:22:43;;;;;;;21.73;10.75;;;-0.20;99.90;;;;;;5098049;28;19903;-66
2023/02/07 05:25:08;;;;;;;19.07;11.60;;;-0.20;99.90;;;;;;5116552;28;20097;-66
2023/02/07 05:27:34;;;;;;;19.00;10.73;;;-0.30;99.90;;;;;;5116540;28;20103;-66
2023/02/07 05:29:59;;;;;;;21.00;11.67;;;-0.20;99.90;;;;;;5116263;28;20028;-66
2023/02/07 05:35:09;;;;;;;18.38;11.20;;;-0.30;99.90;;;;;;5115258;28;20100;-67
2023/02/07 05:37:35;;;;;;;17.03;10.77;;;-0.30;99.90;;;;;;5108804;28;20489;-67
2023/02/07 05:40:00;;;;;;;20.30;11.40;;;-0.40;99.90;;;;;;5109685;28;20107;-66
2023/02/07 05:42:26;;;;;;;18.80;11.10;;;-0.40;99.90;;;;;;5115557;28;20095;-66
2023/02/07 05:44:51;;;;;;;20.07;11.13;;;-0.40;99.90;;;;;;5098278;28;20020;-67
2023/02/07 05:47:17;;;;;;;19.47;11.33;;;-0.40;99.90;;;;;;5116312;28;20111;-67
2023/02/07 05:49:42;;;;;;;19.27;10.13;;;-0.40;99.90;;;;;;5103729;28;20028;-67
2023/02/07 05:52:08;;;;;;;20.30;11.47;;;-0.50;99.90;;;;;;5095506;28;20111;-66
2023/02/07 05:54:34;;;;;;;19.98;11.75;;;-0.50;99.90;;;;;;5095517;28;20042;-66
2023/02/07 05:56:59;;;;;;;18.73;11.57;;;-0.50;99.90;;;;;;5095569;28;20024;-66
2023/02/07 05:59:25;;;;;;;19.80;10.67;;;-0.40;99.90;;;;;;5107021;28;20031;-67
2023/02/07 06:01:50;;;;;;;19.93;11.67;;;-0.40;99.90;;;;;;5114720;28;20068;-66
2023/02/07 06:04:16;;;;;;;21.00;10.93;;;-0.40;99.90;;;;;;5115841;28;20573;-66
2023/02/07 06:06:41;;;;;;;23.53;11.67;;;-0.40;99.90;;;;;;5114438;28;20043;-66
2023/02/07 06:09:07;;;;;;;19.27;12.30;;;-0.40;99.90;;;;;;5115718;28;20023;-66
2023/02/07 06:11:33;;;;;;;21.03;10.83;;;-0.50;99.90;;;;;;5115876;28;20168;-66
2023/02/07 06:13:58;;;;;;;20.30;10.60;;;-0.50;99.90;;;;;;5116074;28;20023;-66
2023/02/07 06:16:24;;;;;;;24.50;12.63;;;-0.50;99.90;;;;;;5115616;28;20028;-66
2023/02/07 06:18:49;;;;;;;22.90;11.60;;;-0.50;99.90;;;;;;5115756;28;20024;-66
2023/02/07 06:21:15;;;;;;;18.87;11.07;;;-0.50;99.90;;;;;;5115511;28;20024;-65
2023/02/07 06:23:40;;;;;;;16.57;10.47;;;-0.60;99.90;;;;;;5116047;28;20030;-67
2023/02/07 06:26:06;;;;;;;18.87;11.57;;;-0.60;99.90;;;;;;5115440;28;20077;-66
2023/02/07 06:28:31;;;;;;;22.23;11.70;;;-0.70;99.90;;;;;;5115091;28;20130;-66
2023/02/07 06:30:57;;;;;;;20.53;12.23;;;-0.70;99.90;;;;;;5115170;28;20023;-62
2023/02/07 06:33:23;;;;;;;21.00;11.33;;;-0.70;99.90;;;;;;5113380;28;20020;-63
2023/02/07 06:35:48;;;;;;;20.70;11.57;;;-0.60;99.90;;;;;;5118364;28;20195;-65
2023/02/07 06:38:15;;;;;;;21.77;11.60;;;-0.60;99.90;;;;;;5118497;28;20536;-65
2023/02/07 06:40:42;;;;;;;21.25;11.52;;;-0.60;99.90;;;;;;5115388;28;20375;-66
2023/02/07 06:43:08;;;;;;;25.42;12.32;;;-0.70;99.90;;;;;;5116051;28;20028;-71
2023/02/07 06:45:34;;;;;;;19.33;11.52;;;-0.80;99.90;;;;;;5096718;28;20062;-65
2023/02/07 06:47:59;;;;;;;23.70;12.07;;;-0.80;99.90;;;;;;5113405;28;20055;-66
2023/02/07 06:50:25;;;;;;;22.20;12.27;;;-0.90;99.90;;;;;;5114793;28;20080;-69
2023/02/07 06:52:50;;;;;;;19.07;11.53;;;-0.90;99.90;;;;;;5096260;28;20028;-67
2023/02/07 06:55:16;;;;;;;20.50;11.67;;;-1.00;99.90;;;;;;5114736;28;20028;-66
2023/02/07 06:57:41;;;;;;;20.33;11.00;;;-1.00;99.90;;;;;;5114442;28;20110;-66
2023/02/07 07:00:08;;;;;;;18.93;11.57;;;-1.00;99.90;;;;;;5114048;28;20050;-66
2023/02/07 07:02:36;;;;;;;22.65;11.85;;;-0.90;99.90;;;;;;5114764;28;20020;-65
2023/02/07 07:05:02;;;;;;;21.85;11.65;;;-1.00;99.90;;;;;;5096714;28;20028;-66
2023/02/07 07:07:28;;;;;;;22.15;11.77;;;-1.00;99.90;;;;;;5096389;28;20031;-66
2023/02/07 07:09:54;;;;;;;26.20;13.10;;;-1.00;99.90;;;;;;5115325;28;20027;-65
2023/02/07 07:12:20;;;;;;;25.40;12.83;;;-1.00;99.90;;;;;;5114638;28;20024;-65
2023/02/07 07:14:46;;;;;;;24.42;12.50;;;-1.10;99.90;;;;;;5114088;28;20023;-65
2023/02/07 07:17:11;;;;;;;22.03;11.20;;;-1.10;99.90;;;;;;5096019;28;20046;-66
2023/02/07 07:19:37;;;;;;;26.50;13.10;;;-1.10;99.90;;;;;;5114612;28;20023;-65
2023/02/07 07:22:03;;;;;;;22.37;12.10;;;-1.10;99.90;;;;;;5114592;28;20254;-64
2023/02/07 07:24:28;;;;;;;29.17;12.52;;;-1.10;99.90;;;;;;5095906;28;20114;-65
2023/02/07 07:26:55;;;;;;;25.73;13.27;;;-1.10;99.90;;;;;;5114944;28;20031;-65
2023/02/07 07:29:21;;;;;;;25.65;13.55;;;-1.10;99.90;;;;;;5114488;28;20042;-66
2023/02/07 07:31:47;;;;;;;23.48;12.85;;;-1.00;99.90;;;;;;5096339;28;20418;-65
2023/02/07 07:34:13;;;;;;;22.50;12.47;;;-1.00;99.90;;;;;;5114171;28;20027;-64
2023/02/07 07:36:38;;;;;;;22.27;12.85;;;-1.00;99.90;;;;;;5095865;28;20277;-66
2023/02/07 07:39:04;;;;;;;24.53;12.60;;;-1.00;99.90;;;;;;5094928;28;20047;-65
2023/02/07 07:41:30;;;;;;;25.40;13.38;;;-1.00;99.90;;;;;;5114222;28;20023;-66
2023/02/07 07:43:55;;;;;;;22.10;12.60;;;-1.00;99.90;;;;;;5114107;28;20426;-68
2023/02/07 07:46:21;;;;;;;22.83;12.50;;;-0.90;99.90;;;;;;5095887;28;20028;-67
2023/02/07 07:48:47;;;;;;;22.10;11.70;;;-1.00;99.90;;;;;;5114097;28;20037;-66
2023/02/07 07:51:12;;;;;;;23.60;12.67;;;-0.90;99.90;;;;;;5095472;28;20258;-66
2023/02/07 07:53:38;;;;;;;25.17;12.20;;;-0.90;99.90;;;;;;5095474;28;20088;-67
2023/02/07 07:56:04;;;;;;;22.37;12.43;;;-0.80;99.90;;;;;;5095408;28;20031;-67
2023/02/07 07:58:29;;;;;;;23.25;12.45;;;-0.80;99.90;;;;;;5113357;28;20034;-66
2023/02/07 08:00:55;;;;;;;25.00;12.30;;;-0.80;99.90;;;;;;5113556;28;20093;-66
2023/02/07 08:03:21;;;;;;;23.43;12.63;;;-0.70;99.90;;;;;;5113464;28;20434;-66
2023/02/07 08:05:47;;;;;;;21.63;12.02;;;-0.70;99.90;;;;;;5095305;28;20027;-65
2023/02/07 08:08:14;;;;;;;22.10;11.93;;;-0.70;99.90;;;;;;5095623;28;20049;-66
2023/02/07 08:10:39;;;;;;;23.20;12.02;;;-0.70;99.90;;;;;;5113563;28;20073;-66
2023/02/07 08:13:05;;;;;;;25.25;12.75;;;-0.70;99.90;;;;;;5113411;28;20460;-65
2023/02/07 08:15:31;;;;;;;22.05;11.75;;;-0.60;99.90;;;;;;5114348;28;20053;-67
2023/02/07 08:17:56;;;;;;;20.30;11.83;;;-0.60;99.90;;;;;;5114158;28;20028;-66
2023/02/07 08:20:22;;;;;;;21.70;12.20;;;-0.60;99.90;;;;;;5113553;28;20055;-66
2023/02/07 08:22:48;;;;;;;20.97;11.57;;;-0.50;99.90;;;;;;5113153;28;20054;-67
2023/02/07 08:25:13;;;;;;;19.43;12.13;;;-0.50;99.90;;;;;;5114099;28;20072;-66
2023/02/07 08:27:39;;;;;;;20.83;11.10;;;-0.40;99.90;;;;;;5113327;28;20016;-66
2023/02/07 08:30:07;;;;;;;20.35;11.00;;;-0.40;99.90;;;;;;5112719;28;20028;-66
2023/02/07 08:32:33;;;;;;;21.65;11.50;;;-0.40;99.90;;;;;;5113301;28;20080;-66
2023/02/07 08:34:59;;;;;;;20.40;11.32;;;-0.30;99.90;;;;;;5113067;28;20023;-66
2023/02/07 08:37:25;;;;;;;22.00;12.30;;;-0.30;99.90;;;;;;5113302;28;20071;-65
2023/02/07 08:39:51;;;;;;;21.90;12.17;;;-0.30;99.90;;;;;;5112958;28;20066;-67
2023/02/07 08:42:20;;;;;;;18.40;11.10;;;-0.20;99.90;;;;;;5112447;28;20031;-65
2023/02/07 08:44:49;;;;;;;17.40;10.25;;;-0.10;99.90;;;;;;5094727;28;20016;-67
2023/02/07 08:47:16;;;;;;;19.30;10.85;;;0.00;99.90;;;;;;5094615;28;20103;-66
2023/02/07 08:49:42;;;;;;;17.85;10.88;;;0.00;99.90;;;;;;5112935;28;20155;-66
2023/02/07 08:52:09;;;;;;;17.83;10.13;;;0.00;99.90;;;;;;5112002;28;20055;-67
2023/02/07 08:54:35;;;;;;;;;;;0.10;99.90;;;;;;5113669;28;20079;-66
2023/02/07 08:57:00;;;;;;;20.73;10.45;;;0.10;99.90;;;;;;5112137;28;19999;-67
2023/02/07 08:59:26;;;;;;;23.70;10.60;;;0.10;99.90;;;;;;5113014;28;20076;-67
2023/02/07 09:01:51;;;;;;;24.30;9.93;;;0.20;99.90;;;;;;5112864;28;20107;-66
2023/02/07 09:04:17;;;;;;;18.00;10.27;;;0.30;99.90;;;;;;5113124;28;20019;-66
2023/02/07 09:06:42;;;;;;;18.37;9.97;;;0.30;99.90;;;;;;5112508;28;20492;-66
2023/02/07 09:09:09;;;;;;;19.63;9.50;;;0.40;99.90;;;;;;5094537;28;20069;-68
2023/02/07 09:11:35;;;;;;;;;;;0.40;99.90;;;;;;5113341;28;20023;-68
2023/02/07 09:14:01;;;;;;;16.45;9.13;;;0.40;99.90;;;;;;5094717;28;20271;-66
2023/02/07 09:16:26;;;;;;;19.55;10.40;;;0.40;99.90;;;;;;5093473;28;20110;-66
2023/02/07 09:18:52;;;;;;;17.90;10.00;;;0.40;99.90;;;;;;5112759;28;20030;-67
2023/02/07 09:21:18;;;;;;;16.67;10.23;;;0.40;99.90;;;;;;5112734;28;20383;-66
2023/02/07 09:23:44;;;;;;;16.93;9.60;;;0.50;99.90;;;;;;5114284;28;20023;-67
2023/02/07 09:26:16;;;;;;;19.33;10.27;;;0.60;99.90;;;;;;5097517;28;20269;-65
2023/02/07 09:28:41;;;;;;;19.48;9.10;;;0.70;99.90;;;;;;5117040;28;20035;-66
2023/02/07 09:31:09;;;;;;;16.73;9.55;;;0.80;99.90;;;;;;5117046;28;20037;-66
2023/02/07 09:33:35;;;;;;;22.35;11.20;;;0.90;99.90;;;;;;5116889;28;20024;-65
2023/02/07 09:36:01;;;;;;;19.50;10.38;;;0.80;99.90;;;;;;5115672;28;20058;-65
2023/02/07 09:38:27;;;;;;;16.23;10.17;;;0.90;99.90;;;;;;5116097;28;20080;-65
2023/02/07 09:40:53;;;;;;;16.98;9.77;;;0.90;99.90;;;;;;5115782;28;20064;-66
2023/02/07 09:43:32;;;;;;;;;;;1.10;99.90;;;;;;5116646;28;20035;-66
2023/02/07 09:46:04;;;;;;;19.60;9.15;;;1.20;99.90;;;;;;5115865;28;20373;-67
2023/02/07 09:48:52;;;;;;;19.27;9.80;;;1.50;99.90;;;;;;5115843;28;20118;-65
2023/02/07 09:51:21;;;;;;;17.50;9.20;;;2.40;99.90;;;;;;5115897;28;20039;-66
2023/02/07 09:53:46;;;;;;;15.35;9.48;;;3.20;99.90;;;;;;5116051;28;20099;-66
2023/02/07 09:56:18;;;;;;;15.17;7.83;;;4.70;99.90;;;;;;5115640;28;20116;-66
2023/02/07 09:59:04;;;;;;;14.65;8.73;;;6.10;96.10;;;;;;5097637;28;20019;-65
2023/02/07 10:01:45;;;;;;;14.85;8.88;;;7.30;93.90;;;;;;5116217;28;20023;-66
2023/02/07 10:04:23;;;;;;;13.05;7.70;;;8.10;90.90;;;;;;5097511;28;20027;-66
2023/02/07 10:06:52;;;;;;;13.80;8.88;;;7.30;90.50;;;;;;5115652;28;20024;-65
2023/02/07 10:09:30;;;;;;;13.43;8.50;;;5.80;92.20;;;;;;5115630;28;20042;-65
2023/02/07 10:12:24;;;;;;;14.65;8.35;;;5.00;93.30;;;;;;5115727;28;20050;-66
2023/02/07 10:15:24;;;;;;;15.52;8.85;;;4.40;94.50;;;;;;5115571;28;20020;-65
2023/02/07 10:18:22;;;;;;;17.85;9.77;;;4.00;95.30;;;;;;5115515;28;20031;-65
2023/02/07 10:20:57;;;;;;;15.07;9.15;;;3.60;96.50;;;;;;5097208;28;20023;-66
2023/02/07 10:23:32;;;;;;;16.17;9.32;;;3.60;97.00;;;;;;5096964;28;20037;-66
2023/02/07 10:26:11;;;;;;;14.82;8.43;;;3.80;96.90;;;;;;5115166;28;20020;-66
2023/02/07 10:28:54;;;;;;;14.50;8.38;;;3.80;96.40;;;;;;5096901;28;20051;-67
2023/02/07 10:31:21;;;;;;;12.10;7.78;;;3.90;96.20;;;;;;5115124;28;20011;-66
2023/02/07 10:33:53;;;;;;;14.60;9.30;;;4.20;96.10;;;;;;5115273;28;20380;-67
2023/02/07 10:36:18;;;;;;;11.85;7.97;;;4.30;96.00;;;;;;5114759;28;20019;-66
2023/02/07 10:39:20;;;;;;;14.17;8.90;;;4.50;95.50;;;;;;5114748;28;20019;-66
2023/02/07 10:41:45;;;;;;;14.95;8.88;;;4.50;95.50;;;;;;5114560;28;20048;-67
2023/02/07 10:44:15;;;;;;;14.20;8.43;;;4.70;95.40;;;;;;5114774;28;20055;-66
2023/02/07 10:46:43;;;;;;;13.82;8.60;;;4.80;95.00;;;;;;5114841;28;20055;-67
2023/02/07 10:49:19;;;;;;;13.32;8.80;;;5.10;95.40;;;;;;5114505;28;20063;-66
2023/02/07 10:51:45;;;;;;;13.85;8.55;;;5.70;94.30;;;;;;5114690;28;20073;-66
2023/02/07 10:54:19;;;;;;;14.27;8.38;;;5.30;93.90;;;;;;5114547;28;20032;-66
2023/02/07 10:56:50;;;;;;;16.00;8.32;;;5.40;94.50;;;;;;5114219;28;20380;-66
2023/02/07 10:59:31;;;;;;;14.15;8.70;;;5.70;93.90;;;;;;5096524;28;20023;-66
2023/02/07 11:01:56;;;;;;;16.02;8.73;;;5.70;93.60;;;;;;5114368;28;20107;-66
2023/02/07 11:04:31;;;;;;;14.63;8.40;;;5.70;93.60;;;;;;5114385;28;20103;-67
2023/02/07 11:07:02;;;;;;;13.30;8.85;;;5.60;93.30;;;;;;5114276;28;20099;-67
2023/02/07 11:09:28;;;;;;;14.35;8.52;;;5.40;93.50;;;;;;5114083;28;20020;-66
2023/02/07 11:11:54;;;;;;;12.47;8.83;;;5.50;93.60;;;;;;5113737;28;20088;-67
2023/02/07 11:14:25;;;;;;;12.77;8.75;;;5.60;93.80;;;;;;5114572;28;20030;-67
2023/02/07 11:17:00;;;;;;;14.95;9.15;;;5.90;93.10;;;;;;5113817;28;20040;-66
2023/02/07 11:19:28;;;;;;;12.13;8.43;;;5.50;93.60;;;;;;5114692;28;20070;-66
2023/02/07 11:22:08;;;;;;;16.48;9.30;;;5.00;94.00;;;;;;5113957;28;20072;-67
2023/02/07 11:24:36;;;;;;;15.40;8.63;;;4.60;94.80;;;;;;5113785;28;20023;-66
2023/02/07 11:27:15;;;;;;;15.82;9.27;;;4.10;95.40;;;;;;5114274;28;20389;-66
2023/02/07 11:29:56;;;;;;;14.05;8.68;;;3.80;96.20;;;;;;5114014;28;20035;-66
2023/02/07 11:32:25;;;;;;;19.38;10.25;;;3.50;96.60;;;;;;5095657;28;20396;-67
2023/02/07 11:34:57;;;;;;;17.23;9.45;;;3.30;97.30;;;;;;5114051;28;20468;-67
2023/02/07 11:37:31;;;;;;;16.85;9.85;;;3.00;97.40;;;;;;5096186;28;20383;-65
2023/02/07 11:40:18;;;;;;;14.43;9.82;;;2.90;98.00;;;;;;5113433;28;20012;-65
2023/02/07 11:42:46;;;;;;;13.50;8.07;;;2.70;98.60;;;;;;5113247;28;20483;-66
2023/02/07 11:45:14;;;;;;;14.10;8.73;;;2.70;99.00;;;;;;5113314;28;20027;-66
2023/02/07 11:47:43;;;;;;;17.90;9.40;;;2.70;99.10;;;;;;5095093;28;20039;-65
2023/02/07 11:50:24;;;;;;;16.77;9.57;;;2.70;99.20;;;;;;5113474;28;20023;-65
2023/02/07 11:52:52;;;;;;;15.27;9.43;;;2.80;99.20;;;;;;5113630;28;20024;-67
2023/02/07 11:55:24;;;;;;;15.38;9.63;;;2.70;99.30;;;;;;5113739;28;20031;-66
2023/02/07 11:57:50;;;;;;;18.17;9.40;;;2.80;99.50;;;;;;5113525;28;20173;-66
2023/02/07 12:00:22;;;;;;;15.70;8.90;;;2.90;99.20;;;;;;5113293;28;20512;-68
2023/02/07 12:03:05;;;;;;;16.17;10.02;;;3.00;99.20;;;;;;5113371;28;20020;-67
2023/02/07 12:05:45;;;;;;;17.30;8.93;;;3.00;98.90;;;;;;5117410;28;20027;-66
2023/02/07 12:08:24;;;;;;;17.00;9.75;;;3.10;98.80;;;;;;5115301;28;20507;-66
2023/02/07 12:10:56;;;;;;;15.75;9.20;;;2.90;98.90;;;;;;5114595;28;20102;-67
2023/02/07 12:13:29;;;;;;;16.55;9.65;;;2.90;99.20;;;;;;5113646;28;20023;-66
2023/02/07 12:16:07;;;;;;;17.52;10.35;;;3.10;99.20;;;;;;5113140;28;20077;-66
2023/02/07 12:19:00;;;;;;;18.02;9.18;;;3.10;99.10;;;;;;5113775;28;20069;-66
2023/02/07 12:21:52;;;;;;;16.55;9.68;;;3.20;99.30;;;;;;5114186;28;20055;-66
2023/02/07 12:24:40;;;;;;;13.32;9.07;;;3.20;99.50;;;;;;5075216;28;20035;-66
2023/02/07 12:27:14;;;;;;;17.05;10.13;;;3.20;99.40;;;;;;5113447;28;20027;-65
2023/02/07 12:29:43;;;;;;;16.77;9.65;;;3.30;99.50;;;;;;5112869;28;20412;-67
2023/02/07 12:32:42;;;;;;;15.35;9.75;;;3.30;99.30;;;;;;5113174;28;20207;-66
2023/02/07 12:35:32;;;;;;;19.55;9.98;;;3.40;99.60;;;;;;5113264;28;20039;-67
2023/02/07 12:38:13;;;;;;;17.23;10.02;;;3.50;99.40;;;;;;5113113;28;20145;-65
2023/02/07 12:40:52;;;;;;;18.27;10.23;;;3.50;99.50;;;;;;5113536;28;20024;-65
2023/02/07 12:43:26;;;;;;;15.05;9.23;;;3.70;99.40;;;;;;5113071;28;20069;-67
2023/02/07 12:45:55;;;;;;;17.80;10.75;;;3.70;99.10;;;;;;5094706;28;20035;-67
2023/02/07 12:48:47;;;;;;;14.70;9.93;;;3.60;99.10;;;;;;5113810;28;20507;-66
2023/02/07 12:51:41;;;;;;;15.05;9.55;;;3.60;99.10;;;;;;5065737;28;20508;-67
2023/02/07 12:54:48;;;;;;;15.75;9.55;;;3.50;99.40;;;;;;5113355;28;20020;-67
2023/02/07 12:57:17;;;;;;;16.48;9.23;;;3.50;99.50;;;;;;5111984;28;20071;-66
2023/02/07 13:00:11;;;;;;;18.95;10.18;;;3.60;99.20;;;;;;5116043;28;20020;-66